createdAt,value
2022-08-17T00:02:25.171Z,2.25
2022-08-17T00:07:28.664Z,2.67
2022-08-17T00:12:41.880Z,3.03
2022-08-17T00:17:48.167Z,3.97
2022-08-17T00:22:50.436Z,3.38
2022-08-17T00:27:52.478Z,3.05
2022-08-17T00:33:11.987Z,2.97
2022-08-17T00:38:18.277Z,3.38
2022-08-17T00:43:30.589Z,3.63
2022-08-17T00:48:33.515Z,3.58
2022-08-17T00:53:40.814Z,3.47
2022-08-17T00:58:43.068Z,3.05
2022-08-17T01:03:45.435Z,3.50
2022-08-17T01:08:47.308Z,3.65
2022-08-17T01:13:49.182Z,3.38
2022-08-17T01:18:54.520Z,3.45
2022-08-17T01:23:57.078Z,3.88
2022-08-17T01:29:00.257Z,3.90
2022-08-17T01:34:06.663Z,3.85
2022-08-17T01:39:17.160Z,3.97
2022-08-17T01:44:20.080Z,4.45
2022-08-17T01:49:22.066Z,4.43
2022-08-17T01:54:25.766Z,4.65
2022-08-17T01:59:27.983Z,4.35
2022-08-17T02:04:29.765Z,4.05
2022-08-17T02:09:31.649Z,4.30
2022-08-17T02:14:33.728Z,4.32
2022-08-17T02:19:35.773Z,3.90
2022-08-17T02:24:58.671Z,4.28
2022-08-17T02:30:01.347Z,4.18
2022-08-17T02:35:05.431Z,4.05
2022-08-17T02:40:08.022Z,4.05
2022-08-17T02:45:17.308Z,3.28
2022-08-17T02:50:22.136Z,4.10
2022-08-17T02:55:33.473Z,3.10
2022-08-17T03:00:38.483Z,3.70
2022-08-17T03:05:40.887Z,3.47
2022-08-17T03:10:44.539Z,3.40
2022-08-17T03:15:47.371Z,3.63
2022-08-17T03:20:49.358Z,3.00
2022-08-17T03:25:52.793Z,3.10
2022-08-17T03:30:55.545Z,3.55
2022-08-17T03:35:58.232Z,3.00
2022-08-17T03:41:00.412Z,3.38
2022-08-17T03:46:27.689Z,3.28
2022-08-17T03:51:49.923Z,3.60
2022-08-17T03:57:07.781Z,3.72
2022-08-17T04:02:31.198Z,3.08
2022-08-17T04:07:33.303Z,3.63
2022-08-17T04:12:50.803Z,3.47
2022-08-17T04:17:53.221Z,3.03
2022-08-17T04:23:04.366Z,3.60
2022-08-17T04:28:07.626Z,4.40
2022-08-17T04:33:24.566Z,4.15
2022-08-17T04:38:29.963Z,3.72
2022-08-17T04:43:33.205Z,3.92
2022-08-17T04:48:43.662Z,3.95
2022-08-17T04:53:54.037Z,4.13
2022-08-17T04:59:00.085Z,4.20
2022-08-17T05:04:34.633Z,3.90
2022-08-17T05:09:34.472Z,3.58
2022-08-17T05:14:39.326Z,3.47
2022-08-17T05:19:41.549Z,3.60
2022-08-17T05:24:54.004Z,2.92
2022-08-17T05:29:57.398Z,2.90
2022-08-17T05:35:00.827Z,2.80
2022-08-17T05:40:03.171Z,4.05
2022-08-17T05:45:05.858Z,3.45
2022-08-17T05:50:10.073Z,3.35
2022-08-17T05:55:30.642Z,3.08
2022-08-17T06:00:48.157Z,3.80
2022-08-17T06:06:09.289Z,3.65
2022-08-17T06:11:13.920Z,3.00
2022-08-17T06:16:34.383Z,3.85
2022-08-17T06:21:41.883Z,4.10
2022-08-17T06:26:45.564Z,3.50
2022-08-17T06:31:47.469Z,3.42
2022-08-17T06:37:13.650Z,3.28
2022-08-17T06:43:02.569Z,3.35
2022-08-17T06:48:39.241Z,3.53
2022-08-17T06:53:52.622Z,3.53
2022-08-17T06:58:57.442Z,3.65
2022-08-17T07:04:17.480Z,3.30
2022-08-17T07:09:28.694Z,4.35
2022-08-17T07:14:39.416Z,4.85
2022-08-17T07:19:45.785Z,5.05
2022-08-17T07:24:58.569Z,5.28
2022-08-17T07:30:44.620Z,5.30
2022-08-17T07:35:50.196Z,5.00
2022-08-17T07:40:58.228Z,4.10
2022-08-17T07:46:41.029Z,5.53
2022-08-17T07:51:42.740Z,5.28
2022-08-17T07:56:47.967Z,4.85
2022-08-17T08:01:58.473Z,5.78
2022-08-17T08:07:04.272Z,6.05
2022-08-17T08:12:28.929Z,5.65
2022-08-17T08:17:46.719Z,6.47
2022-08-17T08:23:01.514Z,6.50
2022-08-17T08:28:27.867Z,6.13
2022-08-17T08:33:55.147Z,6.97
2022-08-17T08:39:06.718Z,7.60
2022-08-17T08:44:19.448Z,6.10
2022-08-17T08:50:02.657Z,6.22
2022-08-17T08:55:10.722Z,7.07
2022-08-17T09:00:22.786Z,6.57
2022-08-17T09:05:45.811Z,6.00
2022-08-17T09:11:11.688Z,6.07
2022-08-17T09:16:23.356Z,7.18
2022-08-17T09:21:47.813Z,6.28
2022-08-17T09:27:08.479Z,6.63
2022-08-17T09:32:20.255Z,5.95
2022-08-17T09:37:39.490Z,5.80
2022-08-17T09:42:52.850Z,6.70
2022-08-17T09:48:32.373Z,5.30
2022-08-17T09:53:38.759Z,5.28
2022-08-17T09:58:50.694Z,6.78
2022-08-17T10:04:05.887Z,5.65
2022-08-17T10:09:22.179Z,6.13
2022-08-17T10:14:53.549Z,5.32
2022-08-17T10:20:19.315Z,6.18
2022-08-17T10:25:54.807Z,6.15
2022-08-17T10:31:34.152Z,6.05
2022-08-17T10:36:48.639Z,4.60
2022-08-17T10:41:56.807Z,5.03
2022-08-17T10:47:15.445Z,4.70
2022-08-17T10:52:20.228Z,4.93
2022-08-17T10:57:31.906Z,5.22
2022-08-17T11:02:54.303Z,5.05
2022-08-17T11:08:17.478Z,6.70
2022-08-17T11:13:40.831Z,6.30
2022-08-17T11:19:10.241Z,6.72
2022-08-17T11:24:16.811Z,6.60
2022-08-17T11:29:25.418Z,5.72
2022-08-17T11:34:30.174Z,5.85
2022-08-17T11:39:53.986Z,6.57
2022-08-17T11:45:33.291Z,7.30
2022-08-17T11:51:12.515Z,6.97
2022-08-17T11:56:41.303Z,6.95
2022-08-17T12:01:57.437Z,7.25
2022-08-17T12:07:19.784Z,6.35
2022-08-17T12:12:33.424Z,6.50
2022-08-17T12:17:40.418Z,6.60
2022-08-17T12:23:04.626Z,5.72
2022-08-17T12:28:36.931Z,7.50
2022-08-17T12:33:44.281Z,6.18
2022-08-17T12:39:14.513Z,6.05
2022-08-17T12:44:26.471Z,5.35
2022-08-17T12:49:30.334Z,5.82
2022-08-17T12:54:59.639Z,6.25
2022-08-17T13:00:10.827Z,5.30
2022-08-17T13:05:35.854Z,5.22
2022-08-17T13:10:38.509Z,5.65
2022-08-17T13:15:44.433Z,6.05
2022-08-17T13:20:55.780Z,5.53
2022-08-17T13:26:16.245Z,6.18
2022-08-17T13:31:30.450Z,7.57
2022-08-17T13:36:33.718Z,8.13
2022-08-17T13:41:37.441Z,7.75
2022-08-17T13:46:55.836Z,9.10
2022-08-17T13:51:58.840Z,10.27
2022-08-17T13:57:12.462Z,8.00
2022-08-17T14:02:17.144Z,8.60
2022-08-17T14:07:24.479Z,13.02
2022-08-17T14:12:29.595Z,11.48
2022-08-17T14:17:36.605Z,8.35
2022-08-17T14:22:45.302Z,8.63
2022-08-17T14:27:53.396Z,8.32
2022-08-17T14:32:56.718Z,7.00
2022-08-17T14:37:58.679Z,7.13
2022-08-17T14:43:01.428Z,6.50
2022-08-17T14:48:07.869Z,8.40
2022-08-17T14:53:13.827Z,11.55
2022-08-17T14:58:15.677Z,8.80
2022-08-17T15:03:18.979Z,9.23
2022-08-17T15:08:20.860Z,7.25
2022-08-17T15:13:25.218Z,6.90
2022-08-17T15:18:27.235Z,6.40
2022-08-17T15:23:29.085Z,7.07
2022-08-17T15:28:31.362Z,7.80
2022-08-17T15:33:33.536Z,7.22
2022-08-17T15:38:39.795Z,6.45
2022-08-17T15:43:43.043Z,6.75
2022-08-17T15:48:47.763Z,6.50
2022-08-17T15:54:18.870Z,6.57
2022-08-17T15:59:24.687Z,5.93
2022-08-17T16:04:30.723Z,5.63
2022-08-17T16:09:33.558Z,5.40
2022-08-17T16:14:36.459Z,5.13
2022-08-17T16:19:39.998Z,5.93
2022-08-17T16:24:57.328Z,5.47
2022-08-17T16:29:59.766Z,6.15
2022-08-17T16:35:06.339Z,4.65
2022-08-17T16:40:08.836Z,5.35
2022-08-17T16:45:18.608Z,5.05
2022-08-17T16:50:22.751Z,5.53
2022-08-17T16:55:24.629Z,5.13
2022-08-17T17:00:26.658Z,4.85
2022-08-17T17:06:08.486Z,4.50
2022-08-17T17:11:19.336Z,5.47
2022-08-17T17:16:29.825Z,5.00
2022-08-17T17:21:57.015Z,5.97
2022-08-17T17:27:19.444Z,6.43
2022-08-17T17:32:40.526Z,5.22
2022-08-17T17:37:45.299Z,5.72
2022-08-17T17:42:49.387Z,5.47
2022-08-17T17:47:51.471Z,5.75
2022-08-17T17:53:02.270Z,5.93
2022-08-17T17:58:30.070Z,5.72
2022-08-17T18:03:59.002Z,5.70
2022-08-17T18:09:23.294Z,5.35
2022-08-17T18:14:40.063Z,5.63
2022-08-17T18:19:42.128Z,5.50
2022-08-17T18:24:46.549Z,6.20
2022-08-17T18:29:50.701Z,6.30
2022-08-17T18:34:59.762Z,5.25
2022-08-17T18:40:16.926Z,6.57
2022-08-17T18:45:41.191Z,6.35
2022-08-17T18:50:43.237Z,5.90
2022-08-17T18:55:45.776Z,6.63
2022-08-17T19:00:51.327Z,6.20
2022-08-17T19:06:15.795Z,7.18
2022-08-17T19:11:30.596Z,7.55
2022-08-17T19:16:45.293Z,6.60
2022-08-17T19:21:56.296Z,6.47
2022-08-17T19:27:06.472Z,5.68
2022-08-17T19:32:10.733Z,5.95
2022-08-17T19:37:39.193Z,6.60
2022-08-17T19:43:03.110Z,5.72
2022-08-17T19:48:39.158Z,5.82
2022-08-17T19:54:07.963Z,5.43
2022-08-17T19:59:46.487Z,6.35
2022-08-17T20:04:50.846Z,6.00
2022-08-17T20:10:02.686Z,5.80
2022-08-17T20:15:24.785Z,5.35
2022-08-17T20:20:41.849Z,6.20
2022-08-17T20:26:17.175Z,6.38
2022-08-17T20:31:47.242Z,6.40
2022-08-17T20:36:58.025Z,5.57
2022-08-17T20:42:21.639Z,6.20
2022-08-17T20:47:35.530Z,5.72
2022-08-17T20:52:51.687Z,6.45
2022-08-17T20:57:53.758Z,6.28
2022-08-17T21:03:24.556Z,6.45
2022-08-17T21:08:53.843Z,6.55
2022-08-17T21:14:34.276Z,7.75
2022-08-17T21:19:54.179Z,7.88
2022-08-17T21:25:03.558Z,7.22
2022-08-17T21:30:10.267Z,5.65
2022-08-17T21:35:19.844Z,6.22
2022-08-17T21:40:31.284Z,6.65
2022-08-17T21:45:36.557Z,5.88
2022-08-17T21:50:41.798Z,5.38
2022-08-17T21:55:48.838Z,5.38
2022-08-17T22:01:18.682Z,5.82
2022-08-17T22:06:57.361Z,6.15
2022-08-17T22:12:11.817Z,6.05
2022-08-17T22:17:21.631Z,5.80
2022-08-17T22:22:28.429Z,5.28
2022-08-17T22:27:51.346Z,5.20
2022-08-17T22:32:53.861Z,5.72
2022-08-17T22:37:57.344Z,5.43
2022-08-17T22:43:03.753Z,5.78
2022-08-17T22:48:06.171Z,4.70
2022-08-17T22:53:38.127Z,6.13
2022-08-17T22:59:09.743Z,5.35
2022-08-17T23:04:13.203Z,6.20
2022-08-17T23:09:17.593Z,4.80
2022-08-17T23:14:20.827Z,5.95
2022-08-17T23:19:22.640Z,5.28
2022-08-17T23:24:38.114Z,5.30
2022-08-17T23:29:42.257Z,5.53
2022-08-17T23:34:48.474Z,5.43
2022-08-17T23:39:50.635Z,5.60
2022-08-17T23:44:52.854Z,5.13
2022-08-17T23:49:55.009Z,6.25
2022-08-17T23:54:59.851Z,5.97
